createdAt,value
2018-07-23T00:00:49.455Z,15.20
2018-07-23T00:03:17.135Z,15.10
2018-07-23T00:05:44.811Z,15.10
2018-07-23T00:08:12.397Z,15.10
2018-07-23T00:13:07.568Z,15.00
2018-07-23T00:15:35.198Z,15.00
2018-07-23T00:18:02.830Z,15.00
2018-07-23T00:22:57.938Z,14.90
2018-07-23T00:25:25.553Z,14.80
2018-07-23T00:30:20.679Z,14.80
2018-07-23T00:32:48.274Z,14.80
2018-07-23T00:35:15.946Z,14.70
2018-07-23T00:37:43.799Z,14.70
2018-07-23T00:42:38.945Z,14.80
2018-07-23T00:45:06.926Z,14.80
2018-07-23T00:47:34.560Z,14.90
2018-07-23T00:52:29.801Z,14.90
2018-07-23T00:54:57.478Z,14.90
2018-07-23T00:57:25.066Z,14.90
2018-07-23T00:59:52.656Z,15.00
2018-07-23T01:02:20.293Z,14.90
2018-07-23T01:04:47.898Z,15.00
2018-07-23T01:07:15.531Z,15.00
2018-07-23T01:09:43.187Z,14.90
2018-07-23T01:12:10.819Z,14.90
2018-07-23T01:14:38.463Z,15.00
2018-07-23T01:19:33.628Z,15.10
2018-07-23T01:24:28.774Z,15.00
2018-07-23T01:26:56.365Z,15.00
2018-07-23T01:31:51.470Z,14.90
2018-07-23T01:34:19.085Z,15.00
2018-07-23T01:36:46.675Z,14.90
2018-07-23T01:39:14.330Z,14.80
2018-07-23T01:41:41.915Z,14.80
2018-07-23T01:44:09.593Z,14.80
2018-07-23T01:49:04.734Z,14.70
2018-07-23T01:53:59.869Z,14.60
2018-07-23T01:58:55.018Z,14.60
2018-07-23T02:01:22.605Z,14.40
2018-07-23T02:03:50.240Z,14.50
2018-07-23T02:08:45.298Z,14.50
2018-07-23T02:11:12.929Z,14.50
2018-07-23T02:16:08.040Z,14.50
2018-07-23T02:18:35.645Z,14.40
2018-07-23T02:21:03.260Z,14.40
2018-07-23T02:23:30.888Z,14.30
2018-07-23T02:25:58.518Z,14.30
2018-07-23T02:28:26.129Z,14.30
2018-07-23T02:30:53.741Z,14.20
2018-07-23T02:33:21.446Z,14.10
2018-07-23T02:35:49.053Z,14.10
2018-07-23T02:38:16.689Z,14.00
2018-07-23T02:40:44.323Z,14.00
2018-07-23T02:45:39.434Z,13.90
2018-07-23T02:48:07.109Z,13.90
2018-07-23T02:50:34.766Z,13.90
2018-07-23T02:53:02.408Z,14.00
2018-07-23T02:55:29.998Z,13.90
2018-07-23T02:57:57.628Z,13.90
2018-07-23T03:00:25.288Z,13.90
2018-07-23T03:02:52.884Z,13.90
2018-07-23T03:05:20.519Z,13.90
2018-07-23T03:07:48.143Z,14.00
2018-07-23T03:10:15.769Z,13.90
2018-07-23T03:15:10.881Z,14.00
2018-07-23T03:17:38.581Z,14.00
2018-07-23T03:20:06.271Z,14.00
2018-07-23T03:22:33.891Z,14.10
2018-07-23T03:25:01.506Z,14.10
2018-07-23T03:27:29.133Z,14.10
2018-07-23T03:29:56.734Z,14.10
2018-07-23T03:32:24.380Z,14.20
2018-07-23T03:34:51.990Z,14.10
2018-07-23T03:37:19.600Z,14.10
2018-07-23T03:39:47.170Z,14.20
2018-07-23T03:42:14.801Z,14.20
2018-07-23T03:47:10.240Z,14.20
2018-07-23T03:49:37.816Z,14.20
2018-07-23T03:52:05.615Z,14.30
2018-07-23T03:54:33.225Z,14.30
2018-07-23T03:57:00.833Z,14.30
2018-07-23T03:59:28.494Z,14.30
2018-07-23T04:01:56.177Z,14.30
2018-07-23T04:04:23.799Z,14.40
2018-07-23T04:06:51.410Z,14.40
2018-07-23T04:09:19.173Z,14.40
2018-07-23T04:11:46.801Z,14.40
2018-07-23T04:14:14.965Z,14.40
2018-07-23T04:16:42.587Z,14.30
2018-07-23T04:19:10.222Z,14.30
2018-07-23T04:24:05.526Z,14.40
2018-07-23T04:26:33.151Z,14.40
2018-07-23T04:29:00.790Z,14.40
2018-07-23T04:36:23.432Z,14.50
2018-07-23T04:38:51.065Z,14.50
2018-07-23T04:43:46.170Z,14.60
2018-07-23T04:48:41.307Z,14.60
2018-07-23T04:51:08.961Z,14.70
2018-07-23T04:53:36.612Z,14.70
2018-07-23T04:58:31.991Z,14.70
2018-07-23T05:03:27.144Z,14.80
2018-07-23T05:05:54.731Z,14.80
2018-07-23T05:08:22.442Z,14.90
2018-07-23T05:10:50.106Z,15.00
2018-07-23T05:13:17.670Z,15.00
2018-07-23T05:15:45.294Z,15.10
2018-07-23T05:18:12.866Z,15.10
2018-07-23T05:23:08.001Z,15.20
2018-07-23T05:25:35.640Z,15.20
2018-07-23T05:28:03.322Z,15.30
2018-07-23T05:32:58.491Z,15.40
2018-07-23T05:40:21.128Z,15.50
2018-07-23T05:42:48.725Z,15.60
2018-07-23T05:50:11.491Z,15.80
2018-07-23T06:00:01.671Z,16.10
2018-07-23T06:02:29.352Z,16.10
2018-07-23T06:04:56.950Z,16.20
2018-07-23T06:07:24.565Z,16.20
2018-07-23T06:12:19.685Z,16.30
2018-07-23T06:17:15.490Z,16.40
2018-07-23T06:20:00.581Z,16.40
2018-07-23T06:22:28.686Z,16.40
2018-07-23T06:24:56.708Z,16.50
2018-07-23T06:27:33.301Z,16.50
2018-07-23T06:30:00.942Z,16.40
2018-07-23T06:32:28.536Z,16.50
2018-07-23T06:34:56.377Z,16.40
2018-07-23T06:37:23.985Z,16.50
2018-07-23T06:44:46.696Z,16.60
2018-07-23T06:47:14.322Z,16.70
2018-07-23T06:49:41.927Z,16.80
2018-07-23T06:54:37.049Z,17.00
2018-07-23T06:59:32.947Z,17.00
2018-07-23T07:02:00.643Z,17.20
2018-07-23T07:17:27.821Z,17.20
2018-07-23T07:22:22.996Z,18.30
2018-07-23T07:27:18.132Z,18.50
2018-07-23T07:29:45.748Z,18.50
2018-07-23T07:32:13.346Z,18.60
2018-07-23T07:34:40.969Z,18.70
2018-07-23T07:37:08.620Z,18.80
2018-07-23T07:39:36.272Z,18.90
2018-07-23T07:42:03.890Z,19.10
2018-07-23T07:44:31.570Z,19.20
2018-07-23T07:46:59.176Z,19.20
2018-07-23T07:49:26.803Z,19.30
2018-07-23T07:51:55.038Z,19.30
2018-07-23T07:54:22.756Z,19.40
2018-07-23T07:56:50.331Z,19.40
2018-07-23T07:59:18.062Z,19.40
2018-07-23T08:01:45.610Z,19.50
2018-07-23T08:04:13.248Z,19.60
2018-07-23T08:11:36.929Z,19.50
2018-07-23T08:14:04.687Z,19.40
2018-07-23T08:16:32.299Z,19.40
2018-07-23T08:18:59.945Z,19.50
2018-07-23T08:21:27.542Z,19.50
2018-07-23T08:23:55.183Z,19.60
2018-07-23T08:26:22.801Z,19.60
2018-07-23T08:28:50.443Z,19.60
2018-07-23T08:31:18.109Z,19.60
2018-07-23T08:33:45.992Z,19.60
2018-07-23T08:36:13.638Z,19.90
2018-07-23T08:38:41.321Z,20.00
2018-07-23T08:41:08.937Z,20.20
2018-07-23T08:53:26.745Z,20.30
2018-07-23T08:55:54.366Z,20.30
2018-07-23T08:58:22.011Z,20.30
2018-07-23T09:00:49.734Z,20.30
2018-07-23T09:05:44.966Z,20.40
2018-07-23T09:08:12.593Z,20.50
2018-07-23T09:10:40.258Z,20.50
2018-07-23T09:13:07.962Z,20.50
2018-07-23T09:15:35.598Z,20.60
2018-07-23T09:18:03.390Z,20.80
2018-07-23T09:20:31.158Z,20.90
2018-07-23T09:22:58.818Z,20.80
2018-07-23T09:27:59.517Z,20.70
2018-07-23T09:30:33.415Z,20.70
2018-07-23T09:33:01.289Z,20.70
2018-07-23T09:35:28.983Z,20.90
2018-07-23T09:37:57.408Z,21.10
2018-07-23T09:40:25.077Z,21.40
2018-07-23T09:42:52.846Z,21.60
2018-07-23T09:45:21.137Z,21.90
2018-07-23T09:47:48.911Z,21.90
2018-07-23T09:52:44.312Z,22.30
2018-07-23T09:55:12.264Z,22.30
2018-07-23T09:57:40.656Z,22.10
2018-07-23T10:05:03.699Z,22.40
2018-07-23T10:07:31.476Z,22.60
2018-07-23T10:09:59.186Z,22.80
2018-07-23T10:12:26.891Z,22.80
2018-07-23T10:14:55.443Z,22.80
2018-07-23T10:19:51.811Z,22.90
2018-07-23T10:22:19.550Z,23.40
2018-07-23T10:24:47.216Z,24.00
2018-07-23T10:27:14.932Z,24.20
2018-07-23T10:34:38.267Z,24.70
2018-07-23T10:37:07.054Z,24.70
2018-07-23T10:39:34.742Z,24.60
2018-07-23T10:42:02.406Z,24.30
2018-07-23T10:44:30.080Z,23.80
2018-07-23T10:46:57.807Z,23.20
2018-07-23T10:54:21.387Z,24.50
2018-07-23T10:56:49.043Z,24.60
2018-07-23T10:59:16.737Z,25.00
2018-07-23T11:01:44.491Z,25.40
2018-07-23T11:04:12.221Z,25.30
2018-07-23T11:06:39.883Z,25.60
2018-07-23T11:09:07.868Z,24.80
2018-07-23T11:11:35.576Z,24.50
2018-07-23T11:14:03.342Z,24.50
2018-07-23T11:16:30.983Z,24.80
2018-07-23T11:18:58.652Z,25.10
2018-07-23T11:21:26.379Z,25.50
2018-07-23T11:26:21.586Z,26.20
2018-07-23T11:28:49.322Z,27.00
2018-07-23T11:33:44.944Z,26.90
2018-07-23T11:36:12.626Z,26.80
2018-07-23T11:38:40.307Z,26.70
2018-07-23T11:41:07.918Z,26.10
2018-07-23T11:43:35.639Z,26.10
2018-07-23T11:46:03.310Z,24.70
2018-07-23T11:48:31.055Z,24.70
2018-07-23T11:50:58.707Z,24.00
2018-07-23T11:55:54.412Z,24.80
2018-07-23T11:58:22.092Z,24.80
2018-07-23T12:00:49.818Z,25.30
2018-07-23T12:03:17.469Z,25.30
2018-07-23T12:05:45.151Z,25.50
2018-07-23T12:08:12.843Z,25.60
2018-07-23T12:10:40.554Z,25.60
2018-07-23T12:13:08.277Z,25.80
2018-07-23T12:18:03.822Z,26.20
2018-07-23T12:20:31.672Z,26.20
2018-07-23T12:22:59.380Z,25.90
2018-07-23T12:25:27.148Z,24.80
2018-07-23T12:27:54.913Z,24.30
2018-07-23T12:30:22.620Z,23.80
2018-07-23T12:32:50.277Z,23.50
2018-07-23T12:35:18.008Z,23.40
2018-07-23T12:37:45.720Z,22.90
2018-07-23T12:40:13.444Z,22.60
2018-07-23T12:42:41.281Z,22.60
2018-07-23T12:45:09.045Z,22.50
2018-07-23T12:50:04.576Z,22.70
2018-07-23T12:52:32.476Z,25.20
2018-07-23T12:55:00.205Z,25.90
2018-07-23T12:57:27.867Z,26.30
2018-07-23T12:59:55.673Z,27.10
2018-07-23T13:04:50.998Z,28.90
2018-07-23T13:09:47.249Z,30.00
2018-07-23T13:14:42.469Z,29.80
2018-07-23T13:17:10.119Z,28.60
2018-07-23T13:19:37.882Z,27.20
2018-07-23T13:24:33.348Z,25.00
2018-07-23T13:27:00.975Z,24.30
2018-07-23T13:29:28.653Z,23.80
2018-07-23T13:34:23.883Z,22.90
2018-07-23T13:36:51.538Z,22.60
2018-07-23T13:39:19.234Z,22.30
2018-07-23T13:41:46.844Z,22.00
2018-07-23T13:46:42.047Z,21.90
2018-07-23T13:49:09.853Z,21.80
2018-07-23T13:51:37.592Z,21.70
2018-07-23T13:54:05.488Z,21.80
2018-07-23T13:56:33.153Z,22.00
2018-07-23T13:59:00.854Z,22.10
2018-07-23T14:01:28.623Z,22.10
2018-07-23T14:03:56.301Z,22.30
2018-07-23T14:06:23.999Z,22.30
2018-07-23T14:08:51.602Z,22.50
2018-07-23T14:13:47.003Z,22.90
2018-07-23T14:16:14.663Z,23.30
2018-07-23T14:18:42.416Z,24.20
2018-07-23T14:21:10.100Z,25.40
2018-07-23T14:23:37.747Z,26.90
2018-07-23T14:26:05.356Z,28.20
2018-07-23T14:28:33.038Z,29.50
2018-07-23T14:35:55.797Z,31.60
2018-07-23T14:38:23.792Z,31.90
2018-07-23T14:40:51.446Z,31.50
2018-07-23T14:43:19.423Z,32.30
2018-07-23T14:45:47.148Z,32.20
2018-07-23T14:48:14.878Z,31.80
2018-07-23T14:50:42.632Z,31.80
2018-07-23T14:53:10.372Z,31.30
2018-07-23T15:10:23.918Z,26.70
2018-07-23T15:15:19.297Z,28.20
2018-07-23T15:17:47.584Z,28.40
2018-07-23T15:20:15.238Z,28.40
2018-07-23T15:22:42.940Z,29.90
2018-07-23T15:25:10.593Z,30.70
2018-07-23T15:30:06.084Z,31.40
2018-07-23T15:35:01.370Z,31.50
2018-07-23T15:37:29.568Z,31.40
2018-07-23T15:39:58.094Z,31.20
2018-07-23T15:44:54.438Z,31.10
2018-07-23T15:47:22.130Z,30.70
2018-07-23T15:49:49.760Z,30.30
2018-07-23T15:54:45.188Z,29.80
2018-07-23T15:59:40.531Z,29.60
2018-07-23T16:02:08.256Z,29.60
2018-07-23T16:04:36.073Z,28.00
2018-07-23T16:07:03.913Z,27.20
2018-07-23T16:09:31.601Z,26.60
2018-07-23T16:11:59.353Z,26.60
2018-07-23T16:14:27.067Z,26.50
2018-07-23T16:19:22.271Z,26.60
2018-07-23T16:21:50.915Z,26.70
2018-07-23T16:24:19.352Z,26.70
2018-07-23T16:26:47.020Z,26.50
2018-07-23T16:29:14.684Z,26.50
2018-07-23T16:31:42.350Z,26.50
2018-07-23T16:36:37.670Z,26.50
2018-07-23T16:39:08.100Z,26.50
2018-07-23T16:41:35.853Z,26.20
2018-07-23T16:44:04.103Z,26.10
2018-07-23T16:51:27.197Z,25.80
2018-07-23T16:53:54.998Z,25.70
2018-07-23T16:56:22.685Z,25.60
2018-07-23T16:58:50.370Z,25.50
2018-07-23T17:01:18.855Z,25.50
2018-07-23T17:03:46.603Z,25.40
2018-07-23T17:06:14.198Z,25.40
2018-07-23T17:08:41.944Z,25.30
2018-07-23T17:11:09.607Z,25.30
2018-07-23T17:13:37.920Z,24.10
2018-07-23T17:16:05.676Z,25.00
2018-07-23T17:18:33.404Z,25.00
2018-07-23T17:21:01.087Z,24.80
2018-07-23T17:23:28.855Z,24.60
2018-07-23T17:25:56.463Z,24.40
2018-07-23T17:28:24.188Z,24.30
2018-07-23T17:30:52.005Z,24.30
2018-07-23T17:33:19.660Z,24.20
2018-07-23T17:43:11.163Z,24.40
2018-07-23T17:45:39.828Z,24.40
2018-07-23T17:48:08.986Z,24.40
2018-07-23T17:53:04.470Z,24.30
2018-07-23T17:55:32.194Z,24.20
2018-07-23T17:57:59.838Z,24.20
2018-07-23T18:00:27.630Z,24.00
2018-07-23T18:02:55.393Z,23.80
2018-07-23T18:05:23.245Z,23.70
2018-07-23T18:07:51.027Z,23.50
2018-07-23T18:10:18.781Z,23.30
2018-07-23T18:12:46.443Z,23.10
2018-07-23T18:15:14.365Z,23.00
2018-07-23T18:20:09.670Z,22.60
2018-07-23T18:22:38.235Z,22.50
2018-07-23T18:25:06.118Z,22.40
2018-07-23T18:27:33.818Z,22.20
2018-07-23T18:30:01.446Z,22.10
2018-07-23T18:32:29.239Z,21.90
2018-07-23T18:34:56.848Z,21.80
2018-07-23T18:37:24.531Z,21.70
2018-07-23T18:39:52.282Z,21.60
2018-07-23T18:42:20.074Z,21.50
2018-07-23T18:44:47.801Z,21.30
2018-07-23T18:47:15.596Z,21.20
2018-07-23T18:49:54.636Z,21.10
2018-07-23T18:52:23.115Z,21.10
2018-07-23T18:54:52.197Z,21.10
2018-07-23T18:57:19.978Z,21.10
2018-07-23T18:59:47.789Z,20.90
2018-07-23T19:02:17.614Z,20.70
2018-07-23T19:04:45.395Z,20.50
2018-07-23T19:07:13.109Z,20.30
2018-07-23T19:09:40.947Z,20.10
2018-07-23T19:12:08.988Z,20.10
2018-07-23T19:14:36.694Z,19.90
2018-07-23T19:17:05.682Z,19.80
2018-07-23T19:19:33.389Z,19.70
2018-07-23T19:22:01.190Z,19.60
2018-07-23T19:24:28.842Z,19.50
2018-07-23T19:26:56.552Z,19.40
2018-07-23T19:29:24.221Z,19.40
2018-07-23T19:31:51.971Z,19.30
2018-07-23T19:34:19.639Z,19.30
2018-07-23T19:39:16.265Z,19.10
2018-07-23T19:44:11.860Z,19.10
2018-07-23T19:49:07.387Z,18.90
2018-07-23T19:51:35.406Z,18.90
2018-07-23T19:54:03.307Z,18.70
2018-07-23T19:56:30.994Z,18.70
2018-07-23T19:58:58.710Z,18.50
2018-07-23T20:01:26.445Z,18.40
2018-07-23T20:03:54.255Z,18.30
2018-07-23T20:06:24.160Z,18.10
2018-07-23T20:08:54.624Z,18.00
2018-07-23T20:11:22.949Z,18.00
2018-07-23T20:13:50.913Z,18.00
2018-07-23T20:16:19.286Z,17.90
2018-07-23T20:18:49.137Z,17.80
2018-07-23T20:21:16.991Z,17.70
2018-07-23T20:23:44.901Z,17.60
2018-07-23T20:26:15.327Z,17.50
2018-07-23T20:28:43.287Z,17.50
2018-07-23T20:31:11.378Z,17.40
2018-07-23T20:33:39.973Z,17.40
2018-07-23T20:36:08.746Z,17.40
2018-07-23T20:38:36.731Z,16.80
2018-07-23T20:41:05.029Z,17.30
2018-07-23T20:43:33.520Z,17.40
2018-07-23T20:46:02.062Z,17.30
2018-07-23T20:48:31.844Z,17.20
2018-07-23T20:51:00.130Z,17.20
2018-07-23T20:55:58.150Z,17.10
2018-07-23T20:58:27.044Z,17.10
2018-07-23T21:00:54.702Z,17.00
2018-07-23T21:03:23.504Z,16.90
2018-07-23T21:05:53.054Z,16.80
2018-07-23T21:13:17.428Z,16.80
2018-07-23T21:20:44.163Z,16.60
2018-07-23T21:23:13.277Z,16.60
2018-07-23T21:25:42.369Z,16.50
2018-07-23T21:28:11.445Z,16.40
2018-07-23T21:38:04.769Z,16.20
2018-07-23T21:40:32.635Z,16.20
2018-07-23T21:43:00.907Z,16.20
2018-07-23T21:50:25.511Z,16.10
2018-07-23T21:52:54.552Z,16.00
2018-07-23T21:57:52.567Z,15.80
2018-07-23T22:02:54.496Z,15.80
2018-07-23T22:05:23.187Z,15.80
2018-07-23T22:07:56.643Z,15.80
2018-07-23T22:10:26.981Z,15.70
2018-07-23T22:12:54.656Z,15.70
2018-07-23T22:15:22.346Z,15.60
2018-07-23T22:17:50.109Z,15.60
2018-07-23T22:20:17.832Z,15.60
2018-07-23T22:25:13.137Z,15.40
2018-07-23T22:27:40.871Z,15.30
2018-07-23T22:30:08.898Z,15.30
2018-07-23T22:35:04.459Z,15.40
2018-07-23T22:37:32.137Z,15.40
2018-07-23T22:39:59.849Z,15.30
2018-07-23T22:42:29.280Z,15.30
2018-07-23T22:47:24.653Z,15.30
2018-07-23T22:49:52.340Z,15.30
2018-07-23T22:52:20.051Z,15.20
2018-07-23T22:54:47.696Z,15.20
2018-07-23T22:57:15.374Z,15.20
2018-07-23T22:59:43.131Z,15.10
2018-07-23T23:02:10.842Z,15.10
2018-07-23T23:04:38.561Z,15.00
2018-07-23T23:07:06.309Z,15.00
2018-07-23T23:09:34.341Z,14.90
2018-07-23T23:12:02.176Z,14.90
2018-07-23T23:14:29.909Z,14.90
2018-07-23T23:21:52.846Z,14.80
2018-07-23T23:24:20.547Z,14.80
2018-07-23T23:26:48.259Z,14.80
2018-07-23T23:29:15.900Z,14.80
2018-07-23T23:36:38.705Z,14.70
2018-07-23T23:39:07.885Z,14.70
2018-07-23T23:41:35.601Z,14.70
2018-07-23T23:44:03.294Z,14.70
2018-07-23T23:46:31.040Z,14.70
2018-07-23T23:48:58.716Z,14.70
2018-07-23T23:51:26.406Z,14.70
2018-07-23T23:53:54.135Z,14.80
2018-07-23T23:56:21.837Z,14.80
2018-07-23T23:58:49.451Z,14.80
